kyocera.com alexa rank chart, kyocera.com alexa rank daily changes

kyocera.com alexa rank chart, kyocera.com alexa rank daily changes

kyocera.com
Actual rank:
169 876

RANK HISTORY

Date Rank Diff
2017/08/17 169 876 -5 995
2017/08/16 175 871 +581
2017/08/15 175 290 +3 933
2017/08/14 171 357 +2 214
2017/08/13 169 143 +4 155
2017/08/12 164 988 -22 600
2017/08/11 187 588 -2 770
2017/08/10 190 358 -7 148
2017/08/09 197 506 +4 010
2017/08/08 193 496 +8 974
2017/08/07 184 522 +1 715
2017/08/06 182 807 +2 426
2017/08/05 180 381 -7 003
2017/08/04 187 384 -214
2017/08/03 187 598 -10 530
2017/08/02 198 128 -7 964
2017/08/01 206 092 +3 128
2017/07/31 202 964 +3 407
2017/07/30 199 557 -660
2017/07/29 200 217 +10 381
2017/07/28 189 836 -870
2017/07/27 190 706 -756
2017/07/26 191 462 +3 692
2017/07/25 187 770 +3 599
2017/07/24 184 171 +436
2017/07/23 183 735 -3 160
2017/07/22 186 895 -1 967
2017/07/21 188 862 -1 592
2017/07/20 190 454 -7 879
2017/07/19 198 333 +1 587
2017/07/18 196 746 +1 627
2017/07/17 195 119 -424
2017/07/16 195 543 -8 044
2017/07/15 203 587 +11 932
2017/07/14 191 655 +11 516
2017/07/13 180 139 -6 343
2017/07/12 186 482 -6 675
2017/07/11 193 157 +5 411
2017/07/10 187 746 +408
2017/07/09 187 338 -4 870
2017/07/08 192 208 -9 381
2017/07/07 201 589 +5 259
2017/07/06 196 330 -4 473
2017/07/05 200 803 +674
2017/07/04 200 129 +2 591
2017/07/03 197 538 +4 181
2017/07/02 193 357 +7 760
2017/07/01 185 597 -6 969
2017/06/30 192 566 +512
2017/06/29 192 054 -12 059
2017/06/28 204 113 -305
2017/06/27 204 418 +8 731
2017/06/26 195 687 -1 095
2017/06/25 196 782 +1 089
2017/06/24 195 693 -2 219
2017/06/23 197 912 +1 142
2017/06/22 196 770 +1 189
2017/06/21 195 581 +7 223
2017/06/20 188 358 +958
2017/06/19 187 400 -4 755
2017/06/18 192 155

WIDGET FOR YOUR SITE

DOMAINS WITH THE NEAREST RANK

Domain Rank
fmr.com 169 871
autocoptrackpro.com 169 872
yourbetterandreliable4update.space 169 873
pcfacile1.com 169 874
sunybroome.edu 169 875
kyocera.com 169 876
npibrasil.com 169 877
siam.edu 169 878
sammler.ru 169 879
collegesintamilnadu.com 169 880
xxxlesnina.hr 169 881

DOMAINS WITH THE NEAREST RANK BY TLD .com

Domain Rank
doingenglish.com 169 867
newsexstory.com 169 869
fmr.com 169 871
autocoptrackpro.com 169 872
pcfacile1.com 169 874
kyocera.com 169 876
npibrasil.com 169 877
collegesintamilnadu.com 169 880
iransite.com 169 886
thursdayboots.com 169 887
nssmag.com 169 892